Terminal Aerodrome Forecast
Issued by NWS

Home | Current Version | Previous Version | Text Only | Print | Product List | Glossary On
Versions: 1 2 3 4 5 6 7 8 9 10 11 12 13 14 15
410
FTUS45 KRIW 172326
TAFBPI
TAF
KBPI 172326Z 1800/1824 VRB03KT P6SM SKC
     FM180700 VRB03KT 1 1/2SM BR SCT002
     FM180900 VRB03KT 3/4SM BR VV002
     FM181500 VRB03KT 1 1/2SM BR SCT003
     FM181700 VRB03KT P6SM SCT250=

USA.gov is the U.S. government's official web portal to all federal, state and local government web resources and services.